Latest Weather Observations for Swan Island

IDT60801

Issued at 12:31 am EDT Saturday 31 January 2015 (issued every 30 minutes, with the page automatically refreshed every 10 minutes)

About weather observations | Map of weather stations | Latest weather observations for TAS | Other Formats
Station Details ID: 092123 Name: SWAN ISLAND Lat: -40.73 Lon: 148.12 Height: 15.0 m
Data from the previous 72 hours. | See also: Recent months at Swan Island
Date/Time
EDT
Temp
°C
App
Temp
°C
Dew
Point
Rel
Hum
%
Delta-T
°C
Wind Press
QNH
hPa
Press
MSL
hPa
Rain
since 9 am
mm
Dir
 
Spd
km/h
Gust
km/h
Spd
kts
Gust
kts
30/11:30pm 15.2 - - - - SW 9 17 5 9 1009.9 1009.9 0.0
30/11:00pm 15.4 - - - - SSW 11 20 6 11 1010.0 1010.0 0.0
30/10:30pm 15.6 - - - - SSW 11 19 6 10 1010.4 1010.4 0.0
30/10:00pm 15.6 - - - - S 13 22 7 12 1010.5 1010.5 0.0
30/09:30pm 15.9 - - - - S 17 28 9 15 1010.6 1010.6 0.0
30/09:00pm 15.7 - - - - S 15 26 8 14 1010.5 1010.5 0.0
30/08:30pm 15.9 - - - - S 17 28 9 15 1010.6 1010.6 0.0
30/08:00pm 15.9 - - - - S 19 30 10 16 1010.5 1010.5 0.0
30/07:30pm 16.1 - - - - SSW 20 35 11 19 1010.5 1010.5 0.0
30/07:00pm 16.0 - - - - S 15 26 8 14 1010.6 1010.6 0.0
30/06:30pm 16.0 - - - - S 22 33 12 18 1010.6 1010.6 0.0
30/06:00pm 16.2 - - - - S 32 43 17 23 1010.6 1010.6 0.0
30/05:46pm 16.3 - - - - S 28 48 15 26 1010.9 1010.8 0.0
30/05:30pm 16.5 - - - - S 24 33 13 18 1011.0 1010.9 0.0
30/05:00pm 16.5 - - - - S 24 33 13 18 1011.3 1011.2 0.0
30/04:30pm 16.7 - - - - S 24 39 13 21 1011.5 1011.4 0.0
30/04:00pm 16.5 - - - - S 15 28 8 15 1011.8 1011.7 0.0
30/03:30pm 16.6 - - - - S 22 32 12 17 1011.8 1011.7 0.0
30/03:00pm 16.9 - - - - SSE 30 39 16 21 1012.0 1011.9 0.0
30/02:30pm 17.2 - - - - SSE 30 41 16 22 1012.2 1012.1 0.0
30/02:00pm 17.1 - - - - S 24 35 13 19 1012.5 1012.4 0.0
30/01:30pm 17.2 - - - - SSE 32 39 17 21 1012.8 1012.7 0.0
30/01:00pm 16.6 - - - - SSE 33 46 18 25 1013.0 1012.9 0.0
30/12:30pm 16.9 - - - - SSE 39 52 21 28 1013.1 1013.0 0.0
30/12:00pm 16.6 - - - - S 39 50 21 27 1013.4 1013.3 0.0
30/11:30am 16.4 - - - - SSE 37 54 20 29 1013.8 1013.7 0.0
30/11:00am 15.4 - - - - S 35 50 19 27 1014.1 1014.0 0.0
30/10:33am 14.8 - - - - SSE 37 57 20 31 1014.3 1014.2 0.0
30/10:30am 14.9 - - - - SSE 39 57 21 31 1014.3 1014.2 0.0
30/10:26am 14.8 - - - - SSE 37 57 20 31 1014.3 1014.2 0.0
30/10:00am 14.9 - - - - S 35 52 19 28 1014.4 1014.3 0.0
30/09:37am 14.9 - - - - SSE 33 54 18 29 1014.5 1014.4 0.0
30/09:30am 14.8 - - - - SSE 37 48 20 26 1014.5 1014.4 0.0
30/09:00am 14.7 - - - - SSE 37 50 20 27 1014.5 1014.4 1.8
30/08:30am 14.3 - - - - SSE 33 44 18 24 1014.7 1014.6 1.8
30/08:02am 14.3 - - - - S 28 48 15 26 1014.7 1014.6 1.8
30/08:00am 14.3 - - - - S 28 41 15 22 1014.7 1014.6 1.8
30/07:48am 14.2 - - - - S 30 50 16 27 1014.7 1014.6 1.8
30/07:30am 14.2 - - - - S 28 43 15 23 1014.7 1014.6 1.8
30/07:00am 13.9 - - - - S 30 43 16 23 1014.6 1014.5 1.8
30/06:30am 13.7 - - - - SSE 35 56 19 30 1014.7 1014.6 1.8
30/06:29am 13.9 - - - - SSE 35 56 19 30 1014.7 1014.6 1.8
30/05:30am 13.8 - - - - S 32 43 17 23 1014.7 1014.6 1.8
30/05:00am 13.7 - - - - S 33 46 18 25 1014.7 1014.6 1.8
30/04:30am 13.5 - - - - S 35 50 19 27 1014.9 1014.8 1.8
30/04:07am 13.8 - - - - S 32 50 17 27 1015.3 1015.2 1.8
30/04:00am 13.6 - - - - S 26 39 14 21 1015.3 1015.2 1.8
30/03:30am 13.5 - - - - S 28 39 15 21 1015.7 1015.6 1.8
30/03:00am 13.5 - - - - S 35 50 19 27 1016.1 1016.0 1.8
30/02:30am 13.1 - - - - S 35 46 19 25 1016.2 1016.1 1.8
30/02:05am 13.4 - - - - S 33 52 18 28 1016.5 1016.4 1.8
30/02:00am 13.4 - - - - S 30 44 16 24 1016.6 1016.5 1.8
30/01:30am 13.4 - - - - S 26 39 14 21 1017.2 1017.1 1.8
30/01:00am 13.4 - - - - S 32 46 17 25 1017.3 1017.2 1.8
30/12:30am 13.5 - - - - S 26 39 14 21 1017.6 1017.5 1.8
30/12:00am 13.5 - - - - S 20 33 11 18 1017.9 1017.8 1.8
 
Date/Time
EDT
Temp
°C
App
Temp
°C
Dew
Point
Rel
Hum
%
Delta-T
°C
Wind Press
QNH
hPa
Press
MSL
hPa
Rain
since 9 am
mm
Dir
 
Spd
km/h
Gust
km/h
Spd
kts
Gust
kts
29/11:30pm 13.6 - - - - S 24 35 13 19 1018.4 1018.3 1.8
29/11:00pm 13.6 - - - - S 22 35 12 19 1018.7 1018.6 1.8
29/10:30pm 13.8 - - - - S 30 41 16 22 1019.3 1019.2 1.8
29/10:00pm 13.9 - - - - S 30 46 16 25 1019.1 1019.0 1.8
29/09:30pm 14.2 - - - - S 26 39 14 21 1019.2 1019.1 1.8
29/09:00pm 14.3 - - - - SSE 30 44 16 24 1019.3 1019.2 1.8
29/08:30pm 14.5 - - - - SSE 32 43 17 23 1019.0 1018.9 1.8
29/08:20pm 14.6 - - - - SSE 35 56 19 30 1019.0 1018.9 1.8
29/08:00pm 14.6 - - - - SSE 39 50 21 27 1019.0 1018.9 1.8
29/07:30pm 14.9 - - - - SSE 44 57 24 31 1018.9 1018.8 1.8
29/07:00pm 15.3 - - - - SSE 37 52 20 28 1018.8 1018.7 1.8
29/06:30pm 15.8 - - - - SSE 39 50 21 27 1018.7 1018.6 1.8
29/06:00pm 16.4 - - - - SSE 43 56 23 30 1018.9 1018.8 1.8
29/05:30pm 16.8 - - - - SSE 41 56 22 30 1019.0 1018.9 1.8
29/05:00pm 16.8 - - - - SSE 41 54 22 29 1019.3 1019.2 1.8
29/04:30pm 15.9 - - - - SSE 46 59 25 32 1019.6 1019.5 1.8
29/04:00pm 16.1 - - - - SE 46 63 25 34 1019.8 1019.7 1.8
29/03:40pm 16.8 - - - - SSE 43 61 23 33 1019.9 1019.8 1.8
29/03:30pm 17.1 - - - - SSE 46 61 25 33 1019.8 1019.7 1.8
29/03:00pm 15.9 - - - - SSE 37 48 20 26 1020.0 1019.9 1.8
29/02:30pm 15.1 - - - - SE 44 54 24 29 1020.3 1020.2 1.8
29/02:01pm 14.3 - - - - SE 41 61 22 33 1020.6 1020.5 1.4
29/02:00pm 14.9 - - - - SE 39 57 21 31 1020.6 1020.5 1.2
29/01:30pm 16.0 - - - - SSE 37 52 20 28 1020.5 1020.4 0.8
29/01:04pm 14.6 - - - - SSE 37 57 20 31 1020.7 1020.6 0.8
29/01:00pm 14.4 - - - - SSE 43 57 23 31 1020.8 1020.7 0.8
29/12:35pm 15.6 - - - - SSE 35 56 19 30 1020.7 1020.6 0.8
29/12:30pm 15.8 - - - - SSE 32 41 17 22 1020.8 1020.7 0.8
29/12:00pm 14.0 - - - - SSE 37 50 20 27 1021.1 1021.0 0.8
29/11:42am 15.1 - - - - SSE 37 57 20 31 1021.1 1021.0 0.0
29/11:30am 16.6 - - - - SSE 37 50 20 27 1021.0 1020.9 0.0
29/11:00am 16.6 - - - - SSE 37 50 20 27 1020.9 1020.8 0.0
29/10:30am 16.0 - - - - SSE 41 56 22 30 1021.0 1020.9 0.0
29/10:00am 15.5 - - - - SSE 41 52 22 28 1021.0 1020.9 0.0
29/09:30am 14.1 - - - - SSE 41 52 22 28 1021.2 1021.1 0.0
29/09:00am 14.5 - - - - SSE 39 54 21 29 1021.0 1020.9 0.0
29/08:30am 14.9 - - - - SSE 39 54 21 29 1020.6 1020.5 0.0
29/08:03am 14.9 - - - - SSE 41 65 22 35 1020.5 1020.4 0.0
29/08:00am 15.1 - - - - SSE 39 56 21 30 1020.5 1020.4 0.0
29/07:31am 14.0 - - - - SSE 28 59 15 32 1020.4 1020.3 0.0
29/07:30am 13.9 - - - - S 26 39 14 21 1020.4 1020.3 0.0
29/07:00am 13.3 - - - - S 22 33 12 18 1020.2 1020.1 0.0
29/06:30am 13.2 - - - - S 28 35 15 19 1020.3 1020.2 0.0
29/06:00am 13.2 - - - - S 28 39 15 21 1020.2 1020.1 0.0
29/05:30am 12.9 - - - - S 28 37 15 20 1020.1 1020.0 0.0
29/05:00am 12.6 - - - - S 26 37 14 20 1020.1 1020.0 0.0
29/04:30am 12.6 - - - - S 28 39 15 21 1020.0 1019.9 0.0
29/04:00am 12.6 - - - - S 30 43 16 23 1020.1 1020.0 0.0
29/03:30am 13.4 - - - - SSE 32 41 17 22 1020.4 1020.3 0.0
29/03:00am 13.5 - - - - S 28 39 15 21 1020.5 1020.4 0.0
29/02:30am 13.3 - - - - S 26 35 14 19 1020.7 1020.6 0.0
29/02:00am 13.3 - - - - S 20 30 11 16 1021.1 1021.0 0.0
29/01:30am 13.3 - - - - S 26 39 14 21 1021.2 1021.1 0.0
29/01:00am 13.2 - - - - SSE 30 39 16 21 1021.4 1021.3 0.0
29/12:30am 13.4 - - - - S 32 43 17 23 1021.6 1021.5 0.0
29/12:00am 13.1 - - - - S 20 28 11 15 1021.9 1021.8 0.0
 
Date/Time
EDT
Temp
°C
App
Temp
°C
Dew
Point
Rel
Hum
%
Delta-T
°C
Wind Press
QNH
hPa
Press
MSL
hPa
Rain
since 9 am
mm
Dir
 
Spd
km/h
Gust
km/h
Spd
kts
Gust
kts
28/11:30pm 13.1 - - - - S 19 28 10 15 1022.1 1022.0 0.0
28/11:00pm 13.8 - - - - SSE 28 35 15 19 1022.3 1022.2 0.0
28/10:30pm 13.6 - - - - SSE 32 44 17 24 1022.4 1022.3 0.0
28/10:00pm 14.1 - - - - SSE 32 41 17 22 1022.5 1022.4 0.0
28/09:30pm 14.1 - - - - SSE 35 44 19 24 1022.4 1022.3 0.0
28/09:00pm 14.3 - - - - SSE 39 52 21 28 1022.2 1022.1 0.0
28/08:30pm 14.4 - - - - SSE 43 56 23 30 1021.9 1021.8 0.0
28/08:00pm 15.2 - - - - SSE 48 61 26 33 1021.5 1021.4 0.0
28/07:30pm 15.3 - - - - SSE 44 57 24 31 1021.4 1021.3 0.0
28/07:00pm 15.6 - - - - SSE 39 52 21 28 1021.3 1021.2 0.0
28/06:30pm 15.9 - - - - SE 44 56 24 30 1021.2 1021.1 0.0
28/06:00pm 16.0 - - - - SE 46 61 25 33 1020.8 1020.7 0.0
28/05:30pm 16.2 - - - - SE 52 65 28 35 1020.7 1020.6 0.0
28/05:00pm 16.3 - - - - SE 48 61 26 33 1020.8 1020.7 0.0
28/04:30pm 16.6 - - - - SE 50 61 27 33 1020.8 1020.7 0.0
28/04:00pm 16.9 - - - - SE 52 65 28 35 1020.9 1020.8 0.0
28/03:30pm 17.2 - - - - SE 46 57 25 31 1021.1 1021.0 0.0
28/03:00pm 17.3 - - - - SE 44 56 24 30 1021.4 1021.3 0.0
28/02:30pm 17.4 - - - - SE 44 56 24 30 1021.6 1021.5 0.0
28/02:00pm 17.9 - - - - SE 48 57 26 31 1021.6 1021.5 0.0
28/01:30pm 18.5 - - - - SE 41 52 22 28 1021.7 1021.6 0.0
28/01:00pm 17.1 - - - - SE 44 52 24 28 1021.6 1021.5 0.0
28/12:30pm 17.7 - - - - SE 43 52 23 28 1021.4 1021.3 0.0
28/12:00pm 17.1 - - - - SE 43 56 23 30 1021.2 1021.1 0.0
28/11:30am 17.8 - - - - SE 39 48 21 26 1021.5 1021.4 0.0
28/11:00am 17.1 - - - - SSE 33 44 18 24 1021.6 1021.5 0.0
28/10:30am 17.0 - - - - SSE 35 46 19 25 1021.6 1021.5 0.0
28/10:00am 16.4 - - - - SSE 37 46 20 25 1021.4 1021.3 0.0
28/09:30am 16.6 - - - - SSE 35 46 19 25 1021.4 1021.3 0.0
28/09:00am 15.7 - - - - SSE 35 48 19 26 1021.2 1021.1 0.2
28/08:30am 15.3 - - - - SSE 32 44 17 24 1021.0 1020.9 0.2
28/08:00am 14.6 - - - - SSE 32 44 17 24 1020.6 1020.5 0.2
28/07:30am 13.9 - - - - SSE 35 46 19 25 1020.4 1020.3 0.2
28/07:00am 13.5 - - - - SSE 35 44 19 24 1020.1 1020.0 0.2
28/06:30am 13.0 - - - - SSE 30 41 16 22 1019.8 1019.7 0.2
28/06:00am 13.3 - - - - SSE 33 44 18 24 1019.6 1019.5 0.2
28/05:30am 13.5 - - - - SSE 32 39 17 21 1019.2 1019.1 0.2
28/05:00am 13.6 - - - - SSE 30 39 16 21 1019.1 1019.0 0.2
28/04:30am 13.5 - - - - SSE 32 41 17 22 1019.0 1018.9 0.2
28/04:00am 13.7 - - - - SSE 35 48 19 26 1019.1 1019.0 0.2
28/03:30am 13.7 - - - - SSE 32 41 17 22 1019.2 1019.1 0.2
28/03:00am 14.0 - - - - SSE 30 39 16 21 1019.3 1019.2 0.2
28/02:30am 14.5 - - - - SSE 28 33 15 18 1019.3 1019.2 0.2
28/02:17am 14.7 - - - - SSE 28 35 15 19 1019.4 1019.3 0.2
28/02:00am 15.4 - - - - SE 37 44 20 24 1019.3 1019.2 0.2
28/01:30am 15.5 - - - - SE 39 50 21 27 1019.4 1019.3 0.2
28/01:00am 15.7 - - - - SE 37 44 20 24 1019.4 1019.3 0.2

Other Formats:

Comma delimited format used in spreadsheet applications
http://www.bom.gov.au/fwo/IDT60801/IDT60801.95985.axf

JavaScript Object Notation format (JSON) in row-major order
http://www.bom.gov.au/fwo/IDT60801/IDT60801.95985.json